Time;durP1;ratioP1;P1;durP2;ratioP2;P2;SDS_P1;SDS_P2;PMS_P1;PMS_P2;Temp;Humidity;BMP_temperature;BMP_pressure;BME280_temperature;BME280_humidity;BME280_pressure;Samples;Min_cycle;Max_cycle;Signal;HPM_P1;HPM_P2
2022/07/08 00:01:11;;;;;;;;;;;18.80;99.90;;;;;;5022344;28;20378;-81
2022/07/08 00:03:36;;;;;;;;;;;18.70;99.90;;;;;;5023261;28;20362;-81
2022/07/08 00:06:02;;;;;;;;;;;18.60;99.90;;;;;;5025760;28;20433;-81
2022/07/08 00:08:29;;;;;;;;;;;18.60;99.90;;;;;;5025691;28;19932;-81
2022/07/08 00:10:54;;;;;;;;;;;18.60;99.90;;;;;;5025067;28;19975;-82
2022/07/08 00:13:20;;;;;;;;;;;18.60;99.90;;;;;;5025072;28;20642;-82
2022/07/08 00:15:45;;;;;;;;;;;18.60;99.90;;;;;;5023031;28;20423;-82
2022/07/08 00:18:11;;;;;;;;;;;18.60;99.90;;;;;;5025583;28;19913;-81
2022/07/08 00:20:36;;;;;;;;;;;18.50;99.90;;;;;;5025154;28;20313;-81
2022/07/08 00:23:02;;;;;;;;;;;18.50;99.90;;;;;;5007616;28;20746;-81
2022/07/08 00:25:27;;;;;;;;;;;18.50;99.90;;;;;;5024224;28;19928;-81
2022/07/08 00:27:53;;;;;;;;;;;18.40;99.90;;;;;;5024530;28;19939;-81
2022/07/08 00:30:18;;;;;;;;;;;18.40;99.90;;;;;;5024430;28;19990;-81
2022/07/08 00:32:44;;;;;;;;;;;18.40;99.90;;;;;;5024820;28;19940;-81
2022/07/08 00:35:10;;;;;;;;;;;18.30;99.90;;;;;;5024446;28;19925;-81
2022/07/08 00:37:35;;;;;;;;;;;18.30;99.90;;;;;;5023179;28;19923;-80
2022/07/08 00:40:01;;;;;;;;;;;18.30;99.90;;;;;;5024060;28;19913;-81
2022/07/08 00:42:26;;;;;;;;;;;18.20;99.90;;;;;;5029120;28;19908;-81
2022/07/08 00:44:52;;;;;;;;;;;18.10;99.90;;;;;;5024226;28;20420;-80
2022/07/08 00:47:17;;;;;;;;;;;18.20;99.90;;;;;;5023315;28;19917;-81
2022/07/08 00:49:43;;;;;;;;;;;18.10;99.90;;;;;;5023154;28;20722;-81
2022/07/08 00:52:08;;;;;;;;;;;18.10;99.90;;;;;;5023592;28;20022;-81
2022/07/08 00:54:34;;;;;;;;;;;18.10;99.90;;;;;;5022451;28;19960;-82
2022/07/08 00:57:00;;;;;;;;;;;18.10;99.90;;;;;;5023166;28;19913;-81
2022/07/08 00:59:26;;;;;;;;;;;18.00;99.90;;;;;;5022341;28;19928;-81
2022/07/08 01:01:52;;;;;;;;;;;18.00;99.90;;;;;;5022600;28;19912;-80
2022/07/08 01:04:17;;;;;;;;;;;18.00;99.90;;;;;;5022308;28;20676;-80
2022/07/08 01:06:43;;;;;;;;;;;18.00;99.90;;;;;;5024623;28;19967;-81
2022/07/08 01:09:10;;;;;;;;;;;18.00;99.90;;;;;;5022546;28;19912;-81
2022/07/08 01:11:35;;;;;;;;;;;18.00;99.90;;;;;;5004507;28;20880;-81
2022/07/08 01:14:01;;;;;;;;;;;18.00;99.90;;;;;;5004963;28;19988;-81
2022/07/08 01:16:26;;;;;;;;;;;17.80;99.90;;;;;;5022118;28;19920;-81
2022/07/08 01:18:52;;;;;;;;;;;17.80;99.90;;;;;;5021944;28;20016;-80
2022/07/08 01:21:18;;;;;;;;;;;17.80;99.90;;;;;;5022006;28;20010;-81
2022/07/08 01:23:43;;;;;;;;;;;17.80;99.90;;;;;;5022348;28;20012;-81
2022/07/08 01:26:10;;;;;;;;;;;17.80;99.90;;;;;;5021435;28;19913;-81
2022/07/08 01:28:37;;;;;;;;;;;17.70;99.90;;;;;;5022738;28;19913;-81
2022/07/08 01:31:03;;;;;;;;;;;17.80;99.90;;;;;;5022099;28;20303;-80
2022/07/08 01:33:29;;;;;;;;;;;17.80;99.90;;;;;;5022844;28;20427;-82
2022/07/08 01:35:56;;;;;;;;;;;17.70;99.90;;;;;;5022038;28;20487;-80
2022/07/08 01:38:21;;;;;;;;;;;17.80;99.90;;;;;;5022457;28;19924;-81
2022/07/08 01:40:48;;;;;;;;;;;17.80;99.90;;;;;;5022844;28;19913;-81
2022/07/08 01:43:13;;;;;;;;;;;17.80;99.90;;;;;;5022046;28;20386;-81
2022/07/08 01:45:39;;;;;;;;;;;17.80;99.90;;;;;;5022808;28;19913;-81
2022/07/08 01:48:04;;;;;;;;;;;17.80;99.90;;;;;;5022265;28;19940;-82
2022/07/08 01:50:30;;;;;;;;;;;17.70;99.90;;;;;;5022051;28;19913;-81
2022/07/08 01:52:55;;;;;;;;;;;17.70;99.90;;;;;;4996024;28;20360;-81
2022/07/08 01:55:21;;;;;;;;;;;17.70;99.90;;;;;;5022920;28;19952;-81
2022/07/08 01:57:47;;;;;;;;;;;17.60;99.90;;;;;;5022271;28;19917;-81
2022/07/08 02:00:13;;;;;;;;;;;17.60;99.90;;;;;;5021915;28;19925;-82
2022/07/08 02:02:38;;;;;;;;;;;17.60;99.90;;;;;;5021310;28;19960;-81
2022/07/08 02:05:04;;;;;;;;;;;17.50;99.90;;;;;;5022607;28;19913;-81
2022/07/08 02:07:31;;;;;;;;;;;17.50;99.90;;;;;;5023223;28;19916;-81
2022/07/08 02:09:57;;;;;;;;;;;17.50;99.90;;;;;;5023353;28;19928;-81
2022/07/08 02:12:23;;;;;;;;;;;17.50;99.90;;;;;;5022291;28;20402;-82
2022/07/08 02:14:50;;;;;;;;;;;17.40;99.90;;;;;;5022424;28;19939;-81
2022/07/08 02:17:16;;;;;;;;;;;17.40;99.90;;;;;;5021229;28;19913;-81
2022/07/08 02:19:42;;;;;;;;;;;17.40;99.90;;;;;;5021247;28;20449;-81
2022/07/08 02:22:08;;;;;;;;;;;17.40;99.90;;;;;;5021923;28;19913;-81
2022/07/08 02:24:34;;;;;;;;;;;17.40;99.90;;;;;;5023966;28;19913;-81
2022/07/08 02:27:00;;;;;;;;;;;17.40;99.90;;;;;;5022600;28;19909;-81
2022/07/08 02:29:25;;;;;;;;;;;17.30;99.90;;;;;;5005504;28;19909;-81
2022/07/08 02:31:51;;;;;;;;;;;17.30;99.90;;;;;;5005325;28;19921;-81
2022/07/08 02:34:17;;;;;;;;;;;17.30;99.90;;;;;;5023376;28;20377;-81
2022/07/08 02:36:42;;;;;;;;;;;17.30;99.90;;;;;;5023548;28;19959;-81
2022/07/08 02:39:08;;;;;;;;;;;17.30;99.90;;;;;;5023292;28;19924;-81
2022/07/08 02:41:34;;;;;;;;;;;17.30;99.90;;;;;;5023170;28;19916;-81
2022/07/08 02:43:59;;;;;;;;;;;17.20;99.90;;;;;;5023498;28;19995;-82
2022/07/08 02:46:25;;;;;;;;;;;17.30;99.90;;;;;;5023281;28;19909;-82
2022/07/08 02:48:50;;;;;;;;;;;17.20;99.90;;;;;;5023763;28;19952;-81
2022/07/08 02:51:16;;;;;;;;;;;17.10;99.90;;;;;;5023058;28;19909;-81
2022/07/08 02:53:42;;;;;;;;;;;17.10;99.90;;;;;;5022633;28;19963;-81
2022/07/08 02:56:07;;;;;;;;;;;17.10;99.90;;;;;;5021798;28;19940;-81
2022/07/08 02:58:33;;;;;;;;;;;17.10;99.90;;;;;;5022605;28;20047;-82
2022/07/08 03:00:59;;;;;;;;;;;17.10;99.90;;;;;;5021650;28;19935;-82
2022/07/08 03:03:24;;;;;;;;;;;17.00;99.90;;;;;;5022273;28;19955;-81
2022/07/08 03:05:50;;;;;;;;;;;17.00;99.90;;;;;;5021574;28;19913;-81
2022/07/08 03:08:15;;;;;;;;;;;17.10;99.90;;;;;;5022443;28;20023;-80
2022/07/08 03:10:41;;;;;;;;;;;17.00;99.90;;;;;;5022230;28;19920;-82
2022/07/08 03:13:06;;;;;;;;;;;17.00;99.90;;;;;;5020925;28;19916;-81
2022/07/08 03:15:32;;;;;;;;;;;16.90;99.90;;;;;;5020717;28;19971;-81
2022/07/08 03:17:57;;;;;;;;;;;17.00;99.90;;;;;;5021968;28;19920;-81
2022/07/08 03:20:23;;;;;;;;;;;16.90;99.90;;;;;;5021000;28;19975;-81
2022/07/08 03:22:48;;;;;;;;;;;16.90;99.90;;;;;;5020082;28;19908;-81
2022/07/08 03:25:14;;;;;;;;;;;16.90;99.90;;;;;;5021110;28;19916;-81
2022/07/08 03:27:40;;;;;;;;;;;16.90;99.90;;;;;;5021951;28;19916;-81
2022/07/08 03:30:06;;;;;;;;;;;16.90;99.90;;;;;;5020680;28;19909;-80
2022/07/08 03:32:31;;;;;;;;;;;16.90;99.90;;;;;;5003982;28;19928;-81
2022/07/08 03:34:57;;;;;;;;;;;17.00;99.90;;;;;;5023139;28;20362;-80
2022/07/08 03:37:23;;;;;;;;;;;16.90;99.90;;;;;;5022688;28;20159;-81
2022/07/08 03:39:50;;;;;;;;;;;16.90;99.90;;;;;;5011897;28;19913;-81
2022/07/08 03:42:16;;;;;;;;;;;16.90;99.90;;;;;;5027066;28;20672;-81
2022/07/08 03:44:41;;;;;;;;;;;16.80;99.90;;;;;;5026290;28;19909;-81
2022/07/08 03:47:07;;;;;;;;;;;16.80;99.90;;;;;;5026827;28;19909;-79
2022/07/08 03:49:33;;;;;;;;;;;17.00;99.90;;;;;;5026677;28;19909;-81
2022/07/08 03:51:58;;;;;;;;;;;16.90;99.90;;;;;;5022215;28;20003;-80
2022/07/08 03:54:25;;;;;;;;;;;16.90;99.90;;;;;;5024863;28;20390;-79
2022/07/08 03:56:51;;;;;;;;;;;17.10;99.90;;;;;;5024036;28;19913;-79
2022/07/08 03:59:18;;;;;;;;;;;17.10;99.90;;;;;;5019669;28;19967;-80
2022/07/08 04:01:43;;;;;;;;;;;17.30;99.90;;;;;;5024753;28;20070;-80
2022/07/08 04:04:09;;;;;;;;;;;17.20;99.90;;;;;;5026452;28;20515;-80
2022/07/08 04:06:34;;;;;;;;;;;17.00;99.90;;;;;;5024155;28;19909;-80
2022/07/08 04:09:00;;;;;;;;;;;17.10;99.90;;;;;;5023793;28;20461;-80
2022/07/08 04:11:26;;;;;;;;;;;17.10;99.90;;;;;;5024647;28;20008;-81
2022/07/08 04:13:51;;;;;;;;;;;17.10;99.90;;;;;;5026411;28;19909;-81
2022/07/08 04:16:17;;;;;;;;;;;17.30;99.90;;;;;;5023997;28;20850;-81
2022/07/08 04:18:42;;;;;;;;;;;17.30;99.90;;;;;;5025966;28;20333;-81
2022/07/08 04:21:08;;;;;;;;;;;17.00;99.90;;;;;;5025920;28;19909;-81
2022/07/08 04:23:35;;;;;;;;;;;17.10;99.90;;;;;;5024783;28;19917;-81
2022/07/08 04:26:00;;;;;;;;;;;17.10;99.90;;;;;;5025650;28;20494;-82
2022/07/08 04:28:26;;;;;;;;;;;17.20;99.90;;;;;;5025411;28;19910;-81
2022/07/08 04:30:52;;;;;;;;;;;17.30;99.90;;;;;;5025229;28;19909;-80
2022/07/08 04:33:17;;;;;;;;;;;17.40;99.90;;;;;;5025713;28;19917;-82
2022/07/08 04:35:43;;;;;;;;;;;18.10;99.90;;;;;;5029245;28;20458;-80
2022/07/08 04:38:08;;;;;;;;;;;18.70;99.90;;;;;;5020888;28;19964;-80
2022/07/08 04:40:34;;;;;;;;;;;19.10;99.90;;;;;;5024298;28;19913;-80
2022/07/08 04:42:59;;;;;;;;;;;19.20;99.90;;;;;;5022204;28;19952;-81
2022/07/08 04:45:25;;;;;;;;;;;19.70;99.90;;;;;;5025405;28;19909;-81
2022/07/08 04:47:51;;;;;;;;;;;20.00;99.90;;;;;;5024262;28;19924;-82
2022/07/08 04:50:17;;;;;;;;;;;20.40;98.10;;;;;;5006107;28;20042;-82
2022/07/08 04:52:42;;;;;;;;;;;20.60;96.30;;;;;;5009506;28;20484;-81
2022/07/08 04:55:08;;;;;;;;;;;20.80;95.10;;;;;;5025462;28;19998;-81
2022/07/08 04:57:33;;;;;;;;;;;20.80;94.40;;;;;;5024987;28;19931;-81
2022/07/08 04:59:59;;;;;;;;;;;20.90;94.70;;;;;;5025174;28;19939;-82
2022/07/08 05:02:25;;;;;;;;;;;21.30;92.70;;;;;;5025069;28;19913;-82
2022/07/08 05:04:51;;;;;;;;;;;21.70;91.40;;;;;;5022684;28;19920;-83
2022/07/08 05:07:16;;;;;;;;;;;22.00;90.30;;;;;;5024608;28;19905;-83
2022/07/08 05:09:42;;;;;;;;;;;22.40;88.50;;;;;;5023822;28;19919;-82
2022/07/08 05:12:08;;;;;;;;;;;22.40;86.50;;;;;;5023065;28;19913;-81
2022/07/08 05:14:33;;;;;;;;;;;22.60;85.40;;;;;;5006316;28;20507;-82
2022/07/08 05:16:59;;;;;;;;;;;22.20;86.30;;;;;;5024708;28;19909;-81
2022/07/08 05:19:24;;;;;;;;;;;22.60;85.50;;;;;;5025353;28;19920;-82
2022/07/08 05:21:50;;;;;;;;;;;23.20;83.70;;;;;;5020622;28;19912;-83
2022/07/08 05:24:15;;;;;;;;;;;23.00;81.20;;;;;;5022083;28;19990;-85
2022/07/08 05:26:41;;;;;;;;;;;23.40;79.50;;;;;;5005692;28;19960;-86
2022/07/08 05:29:06;;;;;;;;;;;24.50;77.50;;;;;;5020754;28;19967;-83
2022/07/08 05:31:32;;;;;;;;;;;24.90;73.50;;;;;;5022511;28;19995;-83
2022/07/08 05:33:57;;;;;;;;;;;25.20;71.80;;;;;;5002856;28;19924;-83
2022/07/08 05:36:23;;;;;;;;;;;25.10;71.60;;;;;;5027224;28;19999;-82
2022/07/08 05:38:49;;;;;;;;;;;25.10;70.50;;;;;;5023827;28;20445;-83
2022/07/08 05:41:14;;;;;;;;;;;25.60;69.80;;;;;;5019391;28;19920;-84
2022/07/08 05:43:40;;;;;;;;;;;25.30;69.20;;;;;;5023502;28;20309;-83
2022/07/08 05:46:06;;;;;;;;;;;25.70;69.60;;;;;;5024254;28;19983;-83
2022/07/08 05:48:31;;;;;;;;;;;25.60;67.80;;;;;;5024183;28;19932;-84
2022/07/08 05:50:57;;;;;;;;;;;25.70;69.10;;;;;;5023629;28;19909;-83
2022/07/08 05:53:22;;;;;;;;;;;25.90;68.60;;;;;;5023684;28;19956;-83
2022/07/08 05:55:48;;;;;;;;;;;26.00;68.00;;;;;;5023988;28;20040;-84
2022/07/08 05:58:13;;;;;;;;;;;26.40;66.40;;;;;;5023830;28;19916;-84
2022/07/08 06:00:39;;;;;;;;;;;26.70;66.50;;;;;;5023568;28;19909;-83
2022/07/08 06:03:05;;;;;;;;;;;26.80;65.60;;;;;;5023306;28;19917;-84
2022/07/08 06:05:33;;;;;;;;;;;26.70;65.20;;;;;;5020973;28;19920;-84
2022/07/08 06:07:59;;;;;;;;;;;26.80;63.90;;;;;;5021761;28;19938;-84
2022/07/08 06:10:28;;;;;;;;;;;27.10;63.30;;;;;;5020692;28;20282;-84
2022/07/08 06:12:54;;;;;;;;;;;27.10;64.60;;;;;;5023103;28;19987;-85
2022/07/08 06:15:20;;;;;;;;;;;27.90;63.30;;;;;;5020068;28;20015;-85
2022/07/08 06:17:46;;;;;;;;;;;27.20;61.60;;;;;;5020468;28;20734;-85
2022/07/08 06:20:14;;;;;;;;;;;26.90;62.30;;;;;;5002874;28;19913;-85
2022/07/08 06:22:39;;;;;;;;;;;28.20;61.00;;;;;;5020412;28;19916;-85
2022/07/08 06:25:05;;;;;;;;;;;28.00;59.90;;;;;;5022269;28;19913;-84
2022/07/08 06:27:31;;;;;;;;;;;28.40;58.50;;;;;;5022093;28;19919;-85
2022/07/08 06:29:56;;;;;;;;;;;28.50;59.00;;;;;;5019870;28;19913;-85
2022/07/08 06:32:22;;;;;;;;;;;28.50;60.10;;;;;;5021995;28;19952;-85
2022/07/08 06:34:48;;;;;;;;;;;27.90;60.50;;;;;;5021903;28;20661;-84
2022/07/08 06:37:13;;;;;;;;;;;29.10;58.60;;;;;;5022316;28;19921;-84
2022/07/08 06:39:39;;;;;;;;;;;29.90;55.10;;;;;;5021744;28;19925;-84
2022/07/08 06:42:04;;;;;;;;;;;29.70;57.60;;;;;;5021882;28;19913;-85
2022/07/08 06:44:30;;;;;;;;;;;29.80;56.80;;;;;;5022171;28;19960;-86
2022/07/08 06:46:56;;;;;;;;;;;29.70;55.10;;;;;;5017517;28;19920;-84
2022/07/08 06:49:21;;;;;;;;;;;30.10;54.90;;;;;;5015480;28;20453;-86
2022/07/08 06:51:47;;;;;;;;;;;30.90;53.70;;;;;;5019987;28;19913;-85
2022/07/08 06:56:56;;;;;;;;;;;31.30;52.90;;;;;;5002920;28;20532;-85
2022/07/08 06:59:22;;;;;;;;;;;31.30;51.60;;;;;;4984558;28;19917;-85
2022/07/08 07:01:47;;;;;;;;;;;30.50;52.60;;;;;;5007069;28;19909;-85
2022/07/08 07:04:13;;;;;;;;;;;31.60;51.60;;;;;;5007511;28;20376;-85
2022/07/08 07:06:39;;;;;;;;;;;31.60;52.20;;;;;;5007876;28;19916;-85
2022/07/08 07:09:04;;;;;;;;;;;32.10;50.80;;;;;;5003866;28;20350;-85
2022/07/08 07:11:30;;;;;;;;;;;31.30;51.70;;;;;;5005060;28;20381;-85
2022/07/08 07:13:55;;;;;;;;;;;30.60;51.90;;;;;;5024248;28;19920;-85
2022/07/08 07:16:21;;;;;;;;;;;31.90;52.90;;;;;;5026497;28;20660;-86
2022/07/08 07:18:46;;;;;;;;;;;32.30;49.80;;;;;;5014406;28;19928;-85
2022/07/08 07:21:12;;;;;;;;;;;32.20;49.80;;;;;;5017359;28;19912;-84
2022/07/08 07:23:37;;;;;;;;;;;31.50;50.90;;;;;;5025003;28;20297;-84
2022/07/08 07:26:03;;;;;;;;;;;31.40;50.80;;;;;;5009442;28;19912;-84
2022/07/08 07:28:29;;;;;;;;;;;31.70;51.50;;;;;;5007065;28;19999;-84
2022/07/08 07:30:54;;;;;;;;;;;30.70;51.30;;;;;;5006822;28;19919;-85
2022/07/08 07:33:20;;;;;;;;;;;30.60;51.20;;;;;;5009118;28;20341;-83
2022/07/08 07:35:45;;;;;;;;;;;31.10;51.40;;;;;;5021635;28;20012;-85
2022/07/08 07:38:11;;;;;;;;;;;31.80;51.10;;;;;;5026548;28;20008;-85
2022/07/08 07:40:36;;;;;;;;;;;32.10;50.00;;;;;;5015194;28;20406;-85
2022/07/08 07:43:02;;;;;;;;;;;31.60;49.80;;;;;;5010233;28;19993;-85
2022/07/08 07:45:27;;;;;;;;;;;31.40;50.90;;;;;;5007530;28;19963;-84
2022/07/08 07:47:53;;;;;;;;;;;32.20;51.60;;;;;;5008036;28;19987;-85
2022/07/08 07:50:18;;;;;;;;;;;32.00;49.70;;;;;;4991367;28;19917;-85
2022/07/08 07:52:44;;;;;;;;;;;33.60;48.40;;;;;;5006092;28;19913;-84
2022/07/08 07:55:09;;;;;;;;;;;34.40;47.60;;;;;;5012556;28;20394;-85
2022/07/08 07:57:36;;;;;;;;;;;33.00;46.20;;;;;;5026289;28;20417;-85
2022/07/08 08:00:03;;;;;;;;;;;32.50;49.60;;;;;;5025843;28;19913;-84
2022/07/08 08:02:29;;;;;;;;;;;33.20;47.10;;;;;;5025578;28;19909;-84
2022/07/08 08:04:54;;;;;;;;;;;33.60;47.40;;;;;;5007516;28;19913;-85
2022/07/08 08:07:20;;;;;;;;;;;33.30;46.90;;;;;;5023125;28;20365;-85
2022/07/08 08:09:45;;;;;;;;;;;33.20;46.20;;;;;;5022616;28;19913;-84
2022/07/08 08:12:11;;;;;;;;;;;34.90;47.10;;;;;;5017664;28;19959;-84
2022/07/08 08:14:36;;;;;;;;;;;35.20;46.00;;;;;;5015482;28;19932;-86
2022/07/08 08:17:02;;;;;;;;;;;34.70;45.10;;;;;;5023785;28;19916;-85
2022/07/08 08:19:27;;;;;;;;;;;33.70;47.30;;;;;;5025142;28;20011;-85
2022/07/08 08:21:53;;;;;;;;;;;34.70;45.30;;;;;;5025306;28;19909;-84
2022/07/08 08:24:18;;;;;;;;;;;34.20;43.20;;;;;;5021844;28;19918;-84
2022/07/08 08:26:46;;;;;;;;;;;33.80;44.20;;;;;;5006756;28;19921;-85
2022/07/08 08:29:11;;;;;;;;;;;33.00;45.80;;;;;;5006370;28;19991;-84
2022/07/08 08:31:37;;;;;;;;;;;34.60;47.20;;;;;;5005229;28;19925;-84
2022/07/08 08:34:02;;;;;;;;;;;35.40;44.80;;;;;;5005837;28;19955;-85
2022/07/08 08:36:28;;;;;;;;;;;36.30;43.10;;;;;;5008995;28;19940;-85
2022/07/08 08:38:53;;;;;;;;;;;35.50;43.20;;;;;;5006849;28;19921;-86
2022/07/08 08:41:20;;;;;;;;;;;35.30;43.30;;;;;;5011154;28;19909;-85
2022/07/08 08:43:45;;;;;;;;;;;35.00;42.50;;;;;;5007021;28;20653;-85
2022/07/08 08:46:11;;;;;;;;;;;34.50;44.60;;;;;;5008869;28;19909;-85
2022/07/08 08:48:38;;;;;;;;;;;34.70;46.90;;;;;;5007698;28;19953;-85
2022/07/08 08:51:07;;;;;;;;;;;35.30;44.00;;;;;;5006798;28;19913;-85
2022/07/08 08:53:42;;;;;;;;;;;35.30;46.20;;;;;;5005658;28;20008;-85
2022/07/08 08:56:09;;;;;;;;;;;34.70;44.90;;;;;;5006030;28;20909;-85
2022/07/08 08:58:36;;;;;;;;;;;35.40;43.10;;;;;;5006821;28;19948;-85
2022/07/08 09:01:01;;;;;;;;;;;35.60;44.20;;;;;;5007080;28;19910;-84
2022/07/08 09:03:27;;;;;;;;;;;35.40;42.40;;;;;;4991592;28;19915;-85
2022/07/08 09:05:52;;;;;;;;;;;35.40;43.40;;;;;;5007062;28;19909;-84
2022/07/08 09:08:18;;;;;;;;;;;35.80;43.60;;;;;;5010144;28;20014;-84
2022/07/08 09:10:43;;;;;;;;;;;35.70;42.00;;;;;;5008757;28;19920;-84
2022/07/08 09:13:14;;;;;;;;;;;35.20;42.00;;;;;;5005767;28;19916;-84
2022/07/08 09:15:40;;;;;;;;;;;34.50;41.30;;;;;;5004322;28;19917;-84
2022/07/08 09:18:07;;;;;;;;;;;35.00;44.10;;;;;;5006330;28;20495;-84
2022/07/08 09:20:44;;;;;;;;;;;35.70;42.50;;;;;;4994293;28;19918;-85
2022/07/08 09:23:22;;;;;;;;;;;35.80;43.50;;;;;;5006065;28;19974;-85
2022/07/08 09:25:48;;;;;;;;;;;35.10;41.30;;;;;;5007306;28;19917;-84
2022/07/08 09:28:27;;;;;;;;;;;35.10;40.60;;;;;;5006288;28;19916;-84
2022/07/08 09:30:54;;;;;;;;;;;36.90;41.60;;;;;;5008174;28;19955;-85
2022/07/08 09:33:19;;;;;;;;;;;38.90;41.10;;;;;;5005890;28;20036;-85
2022/07/08 09:35:50;;;;;;;;;;;38.50;39.40;;;;;;5012703;28;19913;-84
2022/07/08 09:38:18;;;;;;;;;;;37.10;39.30;;;;;;5008156;28;19925;-84
2022/07/08 09:40:52;;;;;;;;;;;36.70;40.60;;;;;;5005869;28;19909;-84
2022/07/08 09:43:18;;;;;;;;;;;37.40;39.90;;;;;;5021954;28;19913;-85
2022/07/08 09:45:43;;;;;;;;;;;38.10;39.70;;;;;;5024049;28;20374;-85
2022/07/08 09:48:09;;;;;;;;;;;37.30;40.70;;;;;;5007346;28;20826;-84
2022/07/08 09:50:39;;;;;;;;;;;35.20;40.50;;;;;;5006335;28;19920;-84
2022/07/08 09:53:11;;;;;;;;;;;35.30;41.00;;;;;;5021370;28;19913;-85
2022/07/08 09:55:38;;;;;;;;;;;35.00;41.10;;;;;;5008149;28;19984;-84
2022/07/08 09:58:04;;;;;;;;;;;36.60;41.10;;;;;;5020111;28;19916;-84
2022/07/08 10:00:29;;;;;;;;;;;37.30;40.60;;;;;;5023456;28;20574;-84
2022/07/08 10:02:55;;;;;;;;;;;36.60;40.30;;;;;;5023558;28;19995;-83
2022/07/08 10:05:21;;;;;;;;;;;37.10;42.70;;;;;;5006055;28;19917;-83
2022/07/08 10:07:46;;;;;;;;;;;37.50;39.40;;;;;;5009617;28;20392;-83
2022/07/08 10:10:12;;;;;;;;;;;37.40;39.80;;;;;;4991760;28;19963;-84
2022/07/08 10:12:38;;;;;;;;;;;36.50;40.00;;;;;;5015587;28;19961;-85
2022/07/08 10:15:05;;;;;;;;;;;36.00;40.10;;;;;;5019810;28;19913;-84
2022/07/08 10:17:33;;;;;;;;;;;36.20;40.50;;;;;;5005672;28;19913;-84
2022/07/08 10:19:59;;;;;;;;;;;36.50;39.20;;;;;;5005444;28;20402;-84
2022/07/08 10:22:25;;;;;;;;;;;36.20;39.10;;;;;;4987176;28;20286;-84
2022/07/08 10:24:52;;;;;;;;;;;37.50;39.60;;;;;;4998325;28;20022;-84
2022/07/08 10:27:17;;;;;;;;;;;37.10;39.70;;;;;;5008855;28;20688;-84
2022/07/08 10:29:43;;;;;;;;;;;37.40;39.40;;;;;;5008797;28;20052;-84
2022/07/08 10:32:21;;;;;;;;;;;37.50;40.80;;;;;;5008981;28;19975;-84
2022/07/08 10:35:05;;;;;;;;;;;36.50;38.60;;;;;;5019502;28;20710;-84
2022/07/08 10:37:44;;;;;;;;;;;35.70;39.10;;;;;;5018437;28;20028;-84
2022/07/08 10:40:11;;;;;;;;;;;36.50;40.90;;;;;;5003456;28;19998;-85
2022/07/08 10:42:37;;;;;;;;;;;34.50;43.20;;;;;;5014914;28;19956;-85
2022/07/08 10:45:02;;;;;;;;;;;33.50;41.30;;;;;;5022388;28;19945;-84
2022/07/08 10:47:28;;;;;;;;;;;32.40;42.20;;;;;;5023268;28;20008;-83
2022/07/08 10:50:02;;;;;;;;;;;31.40;45.80;;;;;;5017448;28;19923;-82
2022/07/08 10:52:32;;;;;;;;;;;30.70;46.50;;;;;;5016695;28;19917;-83
2022/07/08 10:55:08;;;;;;;;;;;30.50;45.10;;;;;;5022567;28;19959;-83
2022/07/08 10:57:35;;;;;;;;;;;30.10;46.20;;;;;;5011702;28;19913;-83
2022/07/08 11:00:09;;;;;;;;;;;30.20;47.80;;;;;;5021549;28;19944;-83
2022/07/08 11:02:39;;;;;;;;;;;29.40;45.60;;;;;;5022267;28;19943;-82
2022/07/08 11:05:04;;;;;;;;;;;29.70;48.90;;;;;;5007486;28;19909;-83
2022/07/08 11:07:30;;;;;;;;;;;29.00;47.60;;;;;;5007770;28;19909;-83
2022/07/08 11:09:56;;;;;;;;;;;28.90;46.30;;;;;;5034061;28;20000;-82
2022/07/08 11:12:25;;;;;;;;;;;28.80;47.00;;;;;;5022592;28;19941;-83
2022/07/08 11:14:52;;;;;;;;;;;29.00;47.90;;;;;;5032304;28;19912;-83
2022/07/08 11:17:17;;;;;;;;;;;28.40;47.80;;;;;;5010068;28;19920;-83
2022/07/08 11:19:44;;;;;;;;;;;28.90;47.30;;;;;;5022132;28;20456;-83
2022/07/08 11:22:10;;;;;;;;;;;28.50;48.70;;;;;;5033093;28;19909;-84
2022/07/08 11:24:37;;;;;;;;;;;28.50;52.40;;;;;;5021121;28;19995;-83
2022/07/08 11:27:02;;;;;;;;;;;28.80;49.40;;;;;;5009270;28;19909;-83
2022/07/08 11:29:28;;;;;;;;;;;29.00;51.70;;;;;;5003452;28;19913;-83
2022/07/08 11:31:57;;;;;;;;;;;28.40;47.70;;;;;;5022256;28;19925;-83
2022/07/08 11:34:24;;;;;;;;;;;28.10;50.80;;;;;;5021819;28;20011;-83
2022/07/08 11:36:57;;;;;;;;;;;28.20;49.70;;;;;;5022363;28;19913;-83
2022/07/08 11:39:22;;;;;;;;;;;28.30;48.10;;;;;;5028954;28;19921;-82
2022/07/08 11:41:48;;;;;;;;;;;27.90;48.90;;;;;;5022030;28;19915;-82
2022/07/08 11:44:18;;;;;;;;;;;27.80;49.10;;;;;;5021354;28;19947;-83
2022/07/08 11:46:45;;;;;;;;;;;28.30;50.90;;;;;;5010360;28;19917;-83
2022/07/08 11:49:11;;;;;;;;;;;28.20;49.30;;;;;;5022794;28;19954;-83
2022/07/08 11:51:37;;;;;;;;;;;28.00;49.30;;;;;;5022315;28;20329;-84
2022/07/08 11:54:02;;;;;;;;;;;28.20;51.20;;;;;;5021790;28;20591;-84
2022/07/08 11:56:28;;;;;;;;;;;28.00;49.10;;;;;;5022585;28;20580;-83
2022/07/08 11:58:54;;;;;;;;;;;27.80;47.50;;;;;;4998412;28;20423;-83
2022/07/08 12:01:20;;;;;;;;;;;27.80;49.20;;;;;;5022428;28;20457;-83
2022/07/08 12:03:45;;;;;;;;;;;27.70;49.50;;;;;;5007170;28;20312;-83
2022/07/08 12:06:11;;;;;;;;;;;28.00;49.60;;;;;;5026273;28;19912;-91
2022/07/08 12:08:40;;;;;;;;;;;28.10;49.40;;;;;;5011803;28;21321;-90
2022/07/08 12:11:18;;;;;;;;;;;28.00;49.90;;;;;;5027471;28;19909;-83
2022/07/08 12:13:48;;;;;;;;;;;27.80;50.40;;;;;;5025002;28;20047;-83
2022/07/08 12:16:32;;;;;;;;;;;27.60;47.80;;;;;;5025946;28;20028;-82
2022/07/08 12:18:59;;;;;;;;;;;27.40;48.60;;;;;;5025636;28;19931;-83
2022/07/08 12:21:24;;;;;;;;;;;27.80;50.00;;;;;;5026149;28;19908;-83
2022/07/08 12:23:56;;;;;;;;;;;27.90;50.00;;;;;;5025244;28;19923;-83
2022/07/08 12:26:22;;;;;;;;;;;27.80;48.00;;;;;;5025630;28;19909;-82
2022/07/08 12:28:47;;;;;;;;;;;27.60;48.50;;;;;;5026014;28;19909;-83
2022/07/08 12:31:30;;;;;;;;;;;27.80;48.20;;;;;;5007407;28;19913;-82
2022/07/08 12:33:59;;;;;;;;;;;27.70;46.70;;;;;;5025097;28;19920;-83
2022/07/08 12:36:25;;;;;;;;;;;27.50;49.00;;;;;;5014204;28;19912;-83
2022/07/08 12:38:51;;;;;;;;;;;27.30;46.40;;;;;;5032975;28;19917;-82
2022/07/08 12:41:20;;;;;;;;;;;27.50;47.10;;;;;;5025257;28;20380;-83
2022/07/08 12:43:46;;;;;;;;;;;27.70;50.80;;;;;;5024648;28;20469;-83
2022/07/08 12:46:11;;;;;;;;;;;27.50;47.00;;;;;;5025140;28;19908;-83
2022/07/08 12:48:37;;;;;;;;;;;27.60;49.00;;;;;;5026293;28;19920;-82
2022/07/08 12:51:03;;;;;;;;;;;27.70;47.70;;;;;;5024852;28;19920;-83
2022/07/08 12:53:28;;;;;;;;;;;27.60;45.50;;;;;;5023860;28;20473;-83
2022/07/08 12:55:54;;;;;;;;;;;27.30;43.90;;;;;;5024486;28;19917;-83
2022/07/08 12:58:24;;;;;;;;;;;27.50;47.40;;;;;;5022878;28;19925;-82
2022/07/08 13:00:52;;;;;;;;;;;27.40;46.60;;;;;;5016218;28;20715;-82
2022/07/08 13:03:18;;;;;;;;;;;27.50;49.30;;;;;;5020686;28;19913;-82
2022/07/08 13:05:43;;;;;;;;;;;27.40;48.50;;;;;;5022923;28;19913;-83
2022/07/08 13:08:09;;;;;;;;;;;27.50;45.90;;;;;;5009156;28;19909;-82
2022/07/08 13:10:35;;;;;;;;;;;27.50;46.30;;;;;;5022005;28;19913;-82
2022/07/08 13:13:06;;;;;;;;;;;27.60;48.20;;;;;;5021347;28;19909;-82
2022/07/08 13:15:35;;;;;;;;;;;27.40;46.10;;;;;;5023093;28;20697;-82
2022/07/08 13:18:01;;;;;;;;;;;27.50;48.40;;;;;;5005429;28;21387;-82
2022/07/08 13:20:27;;;;;;;;;;;27.40;47.40;;;;;;5024115;28;20043;-88
2022/07/08 13:22:52;;;;;;;;;;;27.30;46.40;;;;;;5006411;28;20376;-88
2022/07/08 13:25:18;;;;;;;;;;;27.40;47.60;;;;;;5005244;28;19920;-83
2022/07/08 13:27:45;;;;;;;;;;;27.40;47.60;;;;;;5023696;28;19913;-84
2022/07/08 13:30:13;;;;;;;;;;;27.50;48.00;;;;;;5024021;28;19915;-83
2022/07/08 13:32:39;;;;;;;;;;;27.50;47.20;;;;;;5023753;28;20692;-82
2022/07/08 13:35:05;;;;;;;;;;;27.30;46.50;;;;;;5023493;28;19913;-82
2022/07/08 13:37:31;;;;;;;;;;;27.30;47.60;;;;;;5023975;28;19915;-83
2022/07/08 13:39:56;;;;;;;;;;;27.40;48.60;;;;;;5023698;28;19916;-82
2022/07/08 13:42:22;;;;;;;;;;;27.50;51.60;;;;;;5023735;28;20369;-82
2022/07/08 13:44:47;;;;;;;;;;;27.40;48.10;;;;;;5023393;28;20622;-82
2022/07/08 13:47:13;;;;;;;;;;;27.40;49.30;;;;;;5023611;28;20000;-82
2022/07/08 13:49:39;;;;;;;;;;;27.40;49.40;;;;;;5024333;28;19940;-82
2022/07/08 13:52:04;;;;;;;;;;;27.40;50.00;;;;;;5024165;28;20490;-82
2022/07/08 13:54:30;;;;;;;;;;;27.60;48.30;;;;;;5023217;28;19912;-82
2022/07/08 13:56:55;;;;;;;;;;;27.60;49.00;;;;;;5023812;28;19909;-82
2022/07/08 13:59:21;;;;;;;;;;;27.30;44.80;;;;;;5023822;28;20004;-82
2022/07/08 14:01:47;;;;;;;;;;;27.20;45.20;;;;;;5035583;28;19917;-83
2022/07/08 14:04:14;;;;;;;;;;;27.30;45.50;;;;;;5022607;28;19974;-82
2022/07/08 14:06:40;;;;;;;;;;;27.30;46.00;;;;;;5023239;28;19916;-82
2022/07/08 14:09:06;;;;;;;;;;;27.20;45.30;;;;;;5023559;28;19952;-83
2022/07/08 14:11:31;;;;;;;;;;;27.10;46.00;;;;;;5023601;28;20440;-82
2022/07/08 14:13:57;;;;;;;;;;;27.20;46.80;;;;;;5005949;28;20409;-83